sensor_id;sensor_type;location;lat;lon;timestamp;pressure;altitude;pressure_sealevel;temperature;humidity
7168;BME280;3625;51.762;14.320;2023-05-19T00:00:25;101647.59;;;7.49;91.02
7168;BME280;3625;51.762;14.320;2023-05-19T00:02:55;101699.66;;;7.79;91.20
7168;BME280;3625;51.762;14.320;2023-05-19T00:05:24;101696.16;;;7.78;92.13
7168;BME280;3625;51.762;14.320;2023-05-19T00:07:58;101561.09;;;6.96;92.68
7168;BME280;3625;51.762;14.320;2023-05-19T00:10:29;101705.84;;;7.81;92.77
7168;BME280;3625;51.762;14.320;2023-05-19T00:13:01;101698.88;;;7.89;97.25
7168;BME280;3625;51.762;14.320;2023-05-19T00:15:31;101626.59;;;7.56;99.02
7168;BME280;3625;51.762;14.320;2023-05-19T00:17:59;101691.13;;;8.07;99.41
7168;BME280;3625;51.762;14.320;2023-05-19T00:20:28;101640.84;;;7.78;99.47
7168;BME280;3625;51.762;14.320;2023-05-19T00:22:57;101647.91;;;7.82;99.20
7168;BME280;3625;51.762;14.320;2023-05-19T00:25:26;101688.53;;;8.10;99.11
7168;BME280;3625;51.762;14.320;2023-05-19T00:27:54;101691.09;;;8.01;98.11
7168;BME280;3625;51.762;14.320;2023-05-19T00:30:26;101690.16;;;7.93;97.80
7168;BME280;3625;51.762;14.320;2023-05-19T00:32:55;101698.16;;;8.04;100.00
7168;BME280;3625;51.762;14.320;2023-05-19T00:35:24;101697.31;;;8.11;100.00
7168;BME280;3625;51.762;14.320;2023-05-19T00:37:52;101699.03;;;8.07;100.00
7168;BME280;3625;51.762;14.320;2023-05-19T00:40:22;101695.47;;;7.99;100.00
7168;BME280;3625;51.762;14.320;2023-05-19T00:42:54;101705.97;;;7.94;99.85
7168;BME280;3625;51.762;14.320;2023-05-19T00:45:24;101706.75;;;7.87;98.40
7168;BME280;3625;51.762;14.320;2023-05-19T00:47:54;101695.34;;;7.84;100.00
7168;BME280;3625;51.762;14.320;2023-05-19T00:50:23;101698.81;;;7.78;100.00
7168;BME280;3625;51.762;14.320;2023-05-19T00:52:53;101603.44;;;7.17;100.00
7168;BME280;3625;51.762;14.320;2023-05-19T00:55:26;101702.28;;;7.74;100.00
7168;BME280;3625;51.762;14.320;2023-05-19T00:57:56;101711.00;;;7.70;100.00
7168;BME280;3625;51.762;14.320;2023-05-19T01:00:25;101710.97;;;7.67;100.00
7168;BME280;3625;51.762;14.320;2023-05-19T01:02:57;101706.56;;;7.65;100.00
7168;BME280;3625;51.762;14.320;2023-05-19T01:05:26;101708.28;;;7.61;100.00
7168;BME280;3625;51.762;14.320;2023-05-19T01:07:55;101729.34;;;7.60;100.00
7168;BME280;3625;51.762;14.320;2023-05-19T01:10:24;101702.03;;;7.53;100.00
7168;BME280;3625;51.762;14.320;2023-05-19T01:12:52;101679.03;;;7.32;100.00
7168;BME280;3625;51.762;14.320;2023-05-19T01:15:21;101660.44;;;7.18;100.00
7168;BME280;3625;51.762;14.320;2023-05-19T01:17:59;101698.47;;;7.43;100.00
7168;BME280;3625;51.762;14.320;2023-05-19T01:20:38;101698.50;;;7.48;100.00
7168;BME280;3625;51.762;14.320;2023-05-19T01:23:27;101701.16;;;7.52;100.00
7168;BME280;3625;51.762;14.320;2023-05-19T01:30:20;101705.69;;;7.64;100.00
7168;BME280;3625;51.762;14.320;2023-05-19T01:32:54;101695.06;;;7.56;100.00
7168;BME280;3625;51.762;14.320;2023-05-19T01:35:25;101694.16;;;7.51;100.00
7168;BME280;3625;51.762;14.320;2023-05-19T01:37:57;101699.41;;;7.51;100.00
7168;BME280;3625;51.762;14.320;2023-05-19T01:40:27;101708.09;;;7.44;100.00
7168;BME280;3625;51.762;14.320;2023-05-19T01:43:00;101655.16;;;7.18;100.00
7168;BME280;3625;51.762;14.320;2023-05-19T01:45:33;101699.28;;;7.39;100.00
7168;BME280;3625;51.762;14.320;2023-05-19T01:48:04;101661.38;;;7.22;100.00
7168;BME280;3625;51.762;14.320;2023-05-19T01:50:38;101697.63;;;7.49;100.00
7168;BME280;3625;51.762;14.320;2023-05-19T01:53:07;101687.91;;;7.45;100.00
7168;BME280;3625;51.762;14.320;2023-05-19T01:55:43;101697.72;;;7.58;100.00
7168;BME280;3625;51.762;14.320;2023-05-19T01:58:20;101698.59;;;7.57;100.00
7168;BME280;3625;51.762;14.320;2023-05-19T02:01:03;101672.03;;;7.34;100.00
7168;BME280;3625;51.762;14.320;2023-05-19T02:04:12;101703.00;;;7.58;100.00
7168;BME280;3625;51.762;14.320;2023-05-19T02:06:55;101703.88;;;7.58;100.00
7168;BME280;3625;51.762;14.320;2023-05-19T02:09:33;101700.47;;;7.69;100.00
7168;BME280;3625;51.762;14.320;2023-05-19T02:12:13;101691.72;;;7.73;100.00
7168;BME280;3625;51.762;14.320;2023-05-19T02:14:51;101703.28;;;7.90;100.00
7168;BME280;3625;51.762;14.320;2023-05-19T02:17:26;101704.25;;;8.01;100.00
7168;BME280;3625;51.762;14.320;2023-05-19T02:19:59;101699.03;;;8.07;100.00
7168;BME280;3625;51.762;14.320;2023-05-19T02:22:28;101694.66;;;8.08;100.00
7168;BME280;3625;51.762;14.320;2023-05-19T02:24:57;101695.53;;;8.08;100.00
7168;BME280;3625;51.762;14.320;2023-05-19T02:27:25;101699.97;;;8.14;100.00
7168;BME280;3625;51.762;14.320;2023-05-19T02:29:54;101698.25;;;8.19;100.00
7168;BME280;3625;51.762;14.320;2023-05-19T02:32:24;101698.25;;;8.17;100.00
7168;BME280;3625;51.762;14.320;2023-05-19T02:34:53;101694.78;;;8.21;100.00
7168;BME280;3625;51.762;14.320;2023-05-19T02:37:22;101678.03;;;8.22;100.00
7168;BME280;3625;51.762;14.320;2023-05-19T02:39:51;101698.38;;;8.32;100.00
7168;BME280;3625;51.762;14.320;2023-05-19T02:42:20;101571.41;;;7.72;100.00
7168;BME280;3625;51.762;14.320;2023-05-19T02:44:48;101694.94;;;8.44;100.00
7168;BME280;3625;51.762;14.320;2023-05-19T02:47:17;101697.53;;;8.40;100.00
7168;BME280;3625;51.762;14.320;2023-05-19T02:49:47;101689.56;;;8.32;100.00
7168;BME280;3625;51.762;14.320;2023-05-19T02:52:16;101699.31;;;8.38;100.00
7168;BME280;3625;51.762;14.320;2023-05-19T02:54:45;101695.75;;;8.34;100.00
7168;BME280;3625;51.762;14.320;2023-05-19T02:57:13;101663.00;;;8.06;100.00
7168;BME280;3625;51.762;14.320;2023-05-19T02:59:42;101634.69;;;7.81;100.00
7168;BME280;3625;51.762;14.320;2023-05-19T03:02:10;101687.69;;;8.16;100.00
7168;BME280;3625;51.762;14.320;2023-05-19T03:04:39;101699.13;;;8.18;100.00
7168;BME280;3625;51.762;14.320;2023-05-19T03:07:10;101694.69;;;8.15;100.00
7168;BME280;3625;51.762;14.320;2023-05-19T03:09:40;101672.59;;;7.98;100.00
7168;BME280;3625;51.762;14.320;2023-05-19T03:12:09;101679.59;;;7.91;100.00
7168;BME280;3625;51.762;14.320;2023-05-19T03:14:37;101697.25;;;8.05;100.00
7168;BME280;3625;51.762;14.320;2023-05-19T03:17:07;101702.50;;;8.05;100.00
7168;BME280;3625;51.762;14.320;2023-05-19T03:19:39;101701.63;;;8.01;100.00
7168;BME280;3625;51.762;14.320;2023-05-19T03:22:09;101660.13;;;7.79;100.00
7168;BME280;3625;51.762;14.320;2023-05-19T03:24:38;101697.31;;;8.11;100.00
7168;BME280;3625;51.762;14.320;2023-05-19T03:27:07;101695.53;;;8.08;100.00
7168;BME280;3625;51.762;14.320;2023-05-19T03:29:36;101707.88;;;8.15;100.00
7168;BME280;3625;51.762;14.320;2023-05-19T03:32:05;101704.34;;;8.10;100.00
7168;BME280;3625;51.762;14.320;2023-05-19T03:34:35;101700.81;;;8.08;100.00
7168;BME280;3625;51.762;14.320;2023-05-19T03:37:04;101712.22;;;8.04;100.00
7168;BME280;3625;51.762;14.320;2023-05-19T03:39:36;101702.53;;;8.03;100.00
7168;BME280;3625;51.762;14.320;2023-05-19T03:42:05;101700.81;;;8.08;100.00
7168;BME280;3625;51.762;14.320;2023-05-19T03:44:34;101706.25;;;8.29;100.00
7168;BME280;3625;51.762;14.320;2023-05-19T03:47:04;101702.81;;;8.38;100.00
7168;BME280;3625;51.762;14.320;2023-05-19T03:50:01;101710.81;;;8.52;100.00
7168;BME280;3625;51.762;14.320;2023-05-19T03:52:49;101715.22;;;8.57;100.00
7168;BME280;3625;51.762;14.320;2023-05-19T03:55:30;101717.91;;;8.65;100.00
7168;BME280;3625;51.762;14.320;2023-05-19T03:57:58;101723.22;;;8.69;100.00
7168;BME280;3625;51.762;14.320;2023-05-19T04:00:27;101690.63;;;8.54;100.00
7168;BME280;3625;51.762;14.320;2023-05-19T04:02:56;101716.22;;;8.76;100.00
7168;BME280;3625;51.762;14.320;2023-05-19T04:05:26;101688.03;;;8.66;100.00
7168;BME280;3625;51.762;14.320;2023-05-19T04:07:55;101722.47;;;8.90;100.00
7168;BME280;3625;51.762;14.320;2023-05-19T04:10:23;101720.75;;;9.01;100.00
7168;BME280;3625;51.762;14.320;2023-05-19T04:12:55;101713.75;;;9.13;100.00
7168;BME280;3625;51.762;14.320;2023-05-19T04:15:25;101645.91;;;8.81;100.00
7168;BME280;3625;51.762;14.320;2023-05-19T04:17:55;101682.06;;;9.11;100.00
7168;BME280;3625;51.762;14.320;2023-05-19T04:20:23;101719.16;;;9.41;100.00
7168;BME280;3625;51.762;14.320;2023-05-19T04:22:52;101718.28;;;9.52;100.00
7168;BME280;3625;51.762;14.320;2023-05-19T04:25:20;101691.84;;;9.44;100.00
7168;BME280;3625;51.762;14.320;2023-05-19T04:27:51;101720.09;;;9.74;100.00
7168;BME280;3625;51.762;14.320;2023-05-19T04:30:25;101721.84;;;9.70;99.69
7168;BME280;3625;51.762;14.320;2023-05-19T04:32:55;101724.50;;;9.79;99.36
7168;BME280;3625;51.762;14.320;2023-05-19T04:35:24;101731.53;;;9.79;99.08
7168;BME280;3625;51.762;14.320;2023-05-19T04:37:53;101701.56;;;9.69;99.52
7168;BME280;3625;51.762;14.320;2023-05-19T04:40:27;101687.50;;;9.67;99.29
7168;BME280;3625;51.762;14.320;2023-05-19T04:42:58;101698.09;;;9.84;99.22
7168;BME280;3625;51.762;14.320;2023-05-19T04:45:30;101709.53;;;10.04;99.26
7168;BME280;3625;51.762;14.320;2023-05-19T04:48:02;101736.00;;;10.36;98.82
7168;BME280;3625;51.762;14.320;2023-05-19T04:50:31;101713.06;;;10.41;97.35
7168;BME280;3625;51.762;14.320;2023-05-19T04:53:00;101734.22;;;10.29;96.91
7168;BME280;3625;51.762;14.320;2023-05-19T04:55:29;101733.34;;;10.39;96.29
7168;BME280;3625;51.762;14.320;2023-05-19T04:57:59;101691.03;;;10.24;95.64
7168;BME280;3625;51.762;14.320;2023-05-19T05:00:27;101738.66;;;10.27;95.86
7168;BME280;3625;51.762;14.320;2023-05-19T05:03:00;101736.88;;;10.41;95.89
7168;BME280;3625;51.762;14.320;2023-05-19T05:05:31;101702.47;;;10.47;95.88
7168;BME280;3625;51.762;14.320;2023-05-19T05:08:00;101738.59;;;10.79;93.75
7168;BME280;3625;51.762;14.320;2023-05-19T05:10:34;101737.66;;;10.98;94.27
7168;BME280;3625;51.762;14.320;2023-05-19T05:13:03;101742.88;;;11.10;92.35
7168;BME280;3625;51.762;14.320;2023-05-19T05:15:32;101744.59;;;11.26;92.23
7168;BME280;3625;51.762;14.320;2023-05-19T05:18:04;101737.47;;;11.33;91.15
7168;BME280;3625;51.762;14.320;2023-05-19T05:20:34;101745.41;;;11.41;90.25
7168;BME280;3625;51.762;14.320;2023-05-19T05:23:04;101755.94;;;11.56;90.44
7168;BME280;3625;51.762;14.320;2023-05-19T05:25:34;101749.00;;;11.30;88.37
7168;BME280;3625;51.762;14.320;2023-05-19T05:28:02;101748.16;;;11.21;89.20
7168;BME280;3625;51.762;14.320;2023-05-19T05:30:35;101706.75;;;10.95;90.69
7168;BME280;3625;51.762;14.320;2023-05-19T05:33:07;101718.13;;;11.20;90.28
7168;BME280;3625;51.762;14.320;2023-05-19T05:35:38;101740.25;;;11.10;90.82
7168;BME280;3625;51.762;14.320;2023-05-19T05:38:09;101686.47;;;10.96;90.92
7168;BME280;3625;51.762;14.320;2023-05-19T05:40:39;101742.78;;;11.34;89.98
7168;BME280;3625;51.762;14.320;2023-05-19T05:43:08;101755.94;;;11.56;88.69
7168;BME280;3625;51.762;14.320;2023-05-19T05:45:43;101741.84;;;11.45;89.88
7168;BME280;3625;51.762;14.320;2023-05-19T05:48:14;101716.22;;;11.50;88.83
7168;BME280;3625;51.762;14.320;2023-05-19T05:50:45;101747.66;;;12.11;88.36
7168;BME280;3625;51.762;14.320;2023-05-19T05:53:19;101723.84;;;12.01;85.04
7168;BME280;3625;51.762;14.320;2023-05-19T05:55:52;101751.28;;;11.97;85.40
7168;BME280;3625;51.762;14.320;2023-05-19T05:58:25;101746.50;;;12.42;83.75
7168;BME280;3625;51.762;14.320;2023-05-19T06:00:54;101749.63;;;12.82;83.17
7168;BME280;3625;51.762;14.320;2023-05-19T06:03:27;101707.66;;;13.13;81.60
7168;BME280;3625;51.762;14.320;2023-05-19T06:05:59;101744.06;;;13.74;79.58
7168;BME280;3625;51.762;14.320;2023-05-19T06:08:28;101752.44;;;13.46;76.04
7168;BME280;3625;51.762;14.320;2023-05-19T06:10:57;101740.81;;;13.53;75.32
7168;BME280;3625;51.762;14.320;2023-05-19T06:13:27;101737.16;;;13.59;75.53
7168;BME280;3625;51.762;14.320;2023-05-19T06:15:56;101743.84;;;13.87;75.10
7168;BME280;3625;51.762;14.320;2023-05-19T06:18:37;101747.50;;;13.82;74.62
7168;BME280;3625;51.762;14.320;2023-05-19T06:21:06;101744.41;;;14.09;73.35
7168;BME280;3625;51.762;14.320;2023-05-19T06:23:36;101699.66;;;13.79;72.96
7168;BME280;3625;51.762;14.320;2023-05-19T06:26:06;101751.22;;;14.27;73.40
7168;BME280;3625;51.762;14.320;2023-05-19T06:28:35;101750.84;;;14.50;70.79
7168;BME280;3625;51.762;14.320;2023-05-19T06:31:04;101745.47;;;14.53;70.90
7168;BME280;3625;51.762;14.320;2023-05-19T06:33:56;101745.31;;;15.06;67.83
7168;BME280;3625;51.762;14.320;2023-05-19T06:36:24;101750.38;;;15.63;68.20
7168;BME280;3625;51.762;14.320;2023-05-19T06:38:55;101757.41;;;15.23;64.80
7168;BME280;3625;51.762;14.320;2023-05-19T06:41:29;101750.63;;;15.08;68.10
7168;BME280;3625;51.762;14.320;2023-05-19T06:43:58;101744.56;;;15.00;66.90
7168;BME280;3625;51.762;14.320;2023-05-19T06:46:31;101748.25;;;15.36;67.02
7168;BME280;3625;51.762;14.320;2023-05-19T06:49:01;101747.75;;;15.19;66.59
7168;BME280;3625;51.762;14.320;2023-05-19T06:51:34;101759.38;;;15.15;68.43
7168;BME280;3625;51.762;14.320;2023-05-19T06:54:03;101755.34;;;14.94;68.61
7168;BME280;3625;51.762;14.320;2023-05-19T06:56:44;101759.00;;;15.33;68.29
7168;BME280;3625;51.762;14.320;2023-05-19T06:59:14;101762.16;;;15.50;65.09
7168;BME280;3625;51.762;14.320;2023-05-19T07:01:44;101761.47;;;15.42;65.27
7168;BME280;3625;51.762;14.320;2023-05-19T07:04:14;101763.50;;;15.72;65.55
7168;BME280;3625;51.762;14.320;2023-05-19T07:06:43;101761.50;;;16.19;65.05
7168;BME280;3625;51.762;14.320;2023-05-19T07:09:12;101770.97;;;16.32;60.52
7168;BME280;3625;51.762;14.320;2023-05-19T07:11:41;101763.59;;;16.77;60.83
7168;BME280;3625;51.762;14.320;2023-05-19T07:14:10;101779.34;;;17.20;57.24
7168;BME280;3625;51.762;14.320;2023-05-19T07:16:38;101779.19;;;16.94;57.29
7168;BME280;3625;51.762;14.320;2023-05-19T07:19:07;101785.88;;;17.40;57.50
7168;BME280;3625;51.762;14.320;2023-05-19T07:21:37;101746.22;;;17.54;53.90
7168;BME280;3625;51.762;14.320;2023-05-19T07:24:06;101791.94;;;17.77;53.67
7168;BME280;3625;51.762;14.320;2023-05-19T07:26:34;101761.75;;;17.41;52.85
7168;BME280;3625;51.762;14.320;2023-05-19T07:29:03;101784.50;;;17.87;53.35
7168;BME280;3625;51.762;14.320;2023-05-19T07:31:33;101790.88;;;18.10;51.88
7168;BME280;3625;51.762;14.320;2023-05-19T07:34:02;101780.00;;;17.28;51.56
7168;BME280;3625;51.762;14.320;2023-05-19T07:36:31;101773.00;;;17.23;53.14
7168;BME280;3625;51.762;14.320;2023-05-19T07:39:01;101781.47;;;17.69;51.58
7168;BME280;3625;51.762;14.320;2023-05-19T07:41:30;101765.28;;;17.43;51.75
7168;BME280;3625;51.762;14.320;2023-05-19T07:44:01;101780.03;;;17.87;51.37
7168;BME280;3625;51.762;14.320;2023-05-19T07:46:34;101699.97;;;18.06;51.00
7168;BME280;3625;51.762;14.320;2023-05-19T07:49:04;101768.00;;;18.27;49.85
7168;BME280;3625;51.762;14.320;2023-05-19T07:51:32;101777.91;;;17.69;49.60
7168;BME280;3625;51.762;14.320;2023-05-19T07:54:02;101750.03;;;16.85;52.32
7168;BME280;3625;51.762;14.320;2023-05-19T07:56:31;101772.75;;;17.91;51.78
7168;BME280;3625;51.762;14.320;2023-05-19T07:58:59;101777.97;;;18.23;49.24
7168;BME280;3625;51.762;14.320;2023-05-19T08:01:29;101768.94;;;18.26;49.75
7168;BME280;3625;51.762;14.320;2023-05-19T08:03:58;101770.28;;;18.39;49.99
7168;BME280;3625;51.762;14.320;2023-05-19T08:06:27;101772.44;;;18.28;49.93
7168;BME280;3625;51.762;14.320;2023-05-19T08:08:56;101768.34;;;16.98;52.30
7168;BME280;3625;51.762;14.320;2023-05-19T08:11:26;101752.69;;;16.51;53.13
7168;BME280;3625;51.762;14.320;2023-05-19T08:13:54;101754.53;;;16.13;54.39
7168;BME280;3625;51.762;14.320;2023-05-19T08:16:23;101761.06;;;16.36;55.93
7168;BME280;3625;51.762;14.320;2023-05-19T08:18:51;101761.88;;;16.39;54.73
7168;BME280;3625;51.762;14.320;2023-05-19T08:21:21;101757.69;;;16.65;54.83
7168;BME280;3625;51.762;14.320;2023-05-19T08:23:49;101749.88;;;16.21;52.87
7168;BME280;3625;51.762;14.320;2023-05-19T08:26:18;101752.69;;;16.15;54.94
7168;BME280;3625;51.762;14.320;2023-05-19T08:28:49;101747.19;;;16.57;53.14
7168;BME280;3625;51.762;14.320;2023-05-19T08:31:17;101733.22;;;16.10;51.40
7168;BME280;3625;51.762;14.320;2023-05-19T08:33:46;101752.16;;;16.71;51.45
7168;BME280;3625;51.762;14.320;2023-05-19T08:36:14;101741.59;;;16.32;50.84
7168;BME280;3625;51.762;14.320;2023-05-19T08:38:43;101752.06;;;16.75;50.47
7168;BME280;3625;51.762;14.320;2023-05-19T08:41:11;101682.22;;;15.85;51.00
7168;BME280;3625;51.762;14.320;2023-05-19T08:43:40;101732.88;;;16.59;50.39
7168;BME280;3625;51.762;14.320;2023-05-19T08:46:12;101734.34;;;17.04;49.64
7168;BME280;3625;51.762;14.320;2023-05-19T08:48:46;101725.84;;;17.20;49.21
7168;BME280;3625;51.762;14.320;2023-05-19T08:51:29;101729.19;;;17.27;49.29
7168;BME280;3625;51.762;14.320;2023-05-19T08:54:10;101729.19;;;17.56;49.21
7168;BME280;3625;51.762;14.320;2023-05-19T08:56:42;101730.59;;;17.97;48.35
7168;BME280;3625;51.762;14.320;2023-05-19T08:59:12;101729.88;;;17.92;47.85
7168;BME280;3625;51.762;14.320;2023-05-19T09:01:44;101683.41;;;18.20;46.92
7168;BME280;3625;51.762;14.320;2023-05-19T09:04:14;101725.34;;;18.47;46.41
7168;BME280;3625;51.762;14.320;2023-05-19T09:06:44;101722.78;;;19.18;46.09
7168;BME280;3625;51.762;14.320;2023-05-19T09:09:13;101721.13;;;19.84;44.67
7168;BME280;3625;51.762;14.320;2023-05-19T09:12:06;101720.41;;;20.23;43.05
7168;BME280;3625;51.762;14.320;2023-05-19T09:14:36;101715.09;;;20.43;42.01
7168;BME280;3625;51.762;14.320;2023-05-19T09:17:06;101715.09;;;20.63;41.21
7168;BME280;3625;51.762;14.320;2023-05-19T09:19:35;101709.75;;;19.78;41.39
7168;BME280;3625;51.762;14.320;2023-05-19T09:22:10;101708.22;;;19.49;42.53
7168;BME280;3625;51.762;14.320;2023-05-19T09:24:40;101700.69;;;20.44;42.24
7168;BME280;3625;51.762;14.320;2023-05-19T09:27:08;101719.56;;;21.24;40.25
7168;BME280;3625;51.762;14.320;2023-05-19T09:29:37;101721.16;;;21.46;39.92
7168;BME280;3625;51.762;14.320;2023-05-19T09:32:08;101731.91;;;21.28;38.73
7168;BME280;3625;51.762;14.320;2023-05-19T09:34:40;101715.59;;;20.09;40.60
7168;BME280;3625;51.762;14.320;2023-05-19T09:37:12;101738.00;;;19.41;41.44
7168;BME280;3625;51.762;14.320;2023-05-19T09:39:40;101719.00;;;19.71;41.66
7168;BME280;3625;51.762;14.320;2023-05-19T09:42:14;101722.06;;;20.05;41.72
7168;BME280;3625;51.762;14.320;2023-05-19T09:44:43;101723.13;;;19.79;41.42
7168;BME280;3625;51.762;14.320;2023-05-19T09:47:13;101720.16;;;18.94;42.42
7168;BME280;3625;51.762;14.320;2023-05-19T09:49:46;101724.63;;;19.40;42.48
7168;BME280;3625;51.762;14.320;2023-05-19T09:52:15;101715.84;;;19.59;41.50
7168;BME280;3625;51.762;14.320;2023-05-19T09:54:44;101726.47;;;19.63;40.13
7168;BME280;3625;51.762;14.320;2023-05-19T09:57:12;101716.94;;;19.07;41.54
7168;BME280;3625;51.762;14.320;2023-05-19T09:59:42;101716.66;;;19.83;41.51
7168;BME280;3625;51.762;14.320;2023-05-19T10:02:16;101694.59;;;20.61;40.10
7168;BME280;3625;51.762;14.320;2023-05-19T10:04:48;101722.81;;;20.71;39.15
7168;BME280;3625;51.762;14.320;2023-05-19T10:07:21;101714.19;;;21.24;39.11
7168;BME280;3625;51.762;14.320;2023-05-19T10:09:52;101710.06;;;21.90;38.21
7168;BME280;3625;51.762;14.320;2023-05-19T10:12:25;101706.84;;;19.82;39.67
7168;BME280;3625;51.762;14.320;2023-05-19T10:14:54;101707.72;;;19.83;40.29
7168;BME280;3625;51.762;14.320;2023-05-19T10:17:26;101707.97;;;19.55;40.32
7168;BME280;3625;51.762;14.320;2023-05-19T10:19:55;101710.34;;;20.28;40.50
7168;BME280;3625;51.762;14.320;2023-05-19T10:22:24;101714.41;;;20.58;39.37
7168;BME280;3625;51.762;14.320;2023-05-19T10:24:52;101710.53;;;20.65;39.31
7168;BME280;3625;51.762;14.320;2023-05-19T10:27:22;101708.75;;;20.85;39.29
7168;BME280;3625;51.762;14.320;2023-05-19T10:29:56;101702.69;;;21.58;37.52
7168;BME280;3625;51.762;14.320;2023-05-19T10:32:30;101705.88;;;22.03;37.56
7168;BME280;3625;51.762;14.320;2023-05-19T10:35:31;101706.13;;;22.33;37.39
7168;BME280;3625;51.762;14.320;2023-05-19T10:38:17;101701.59;;;21.62;36.81
7168;BME280;3625;51.762;14.320;2023-05-19T10:41:00;101702.09;;;21.70;36.96
7168;BME280;3625;51.762;14.320;2023-05-19T10:43:46;101709.44;;;21.29;37.28
7168;BME280;3625;51.762;14.320;2023-05-19T10:46:16;101650.94;;;20.75;37.88
7168;BME280;3625;51.762;14.320;2023-05-19T10:48:46;101695.53;;;20.80;38.26
7168;BME280;3625;51.762;14.320;2023-05-19T10:51:15;101684.09;;;20.55;38.97
7168;BME280;3625;51.762;14.320;2023-05-19T10:53:43;101687.41;;;21.39;38.62
7168;BME280;3625;51.762;14.320;2023-05-19T10:56:28;101695.97;;;22.38;37.45
7168;BME280;3625;51.762;14.320;2023-05-19T10:58:59;101697.06;;;22.69;36.32
7168;BME280;3625;51.762;14.320;2023-05-19T11:01:31;101698.00;;;23.18;35.68
7168;BME280;3625;51.762;14.320;2023-05-19T11:04:07;101698.78;;;20.87;36.81
7168;BME280;3625;51.762;14.320;2023-05-19T11:06:38;101694.47;;;20.84;38.26
7168;BME280;3625;51.762;14.320;2023-05-19T11:09:13;101640.41;;;19.66;39.42
7168;BME280;3625;51.762;14.320;2023-05-19T11:11:46;101679.22;;;19.80;39.85
7168;BME280;3625;51.762;14.320;2023-05-19T11:14:18;101688.47;;;20.37;39.83
7168;BME280;3625;51.762;14.320;2023-05-19T11:16:52;101679.88;;;19.64;40.69
7168;BME280;3625;51.762;14.320;2023-05-19T11:19:28;101686.03;;;20.09;40.34
7168;BME280;3625;51.762;14.320;2023-05-19T11:22:07;101679.50;;;19.73;41.46
7168;BME280;3625;51.762;14.320;2023-05-19T11:24:38;101689.44;;;20.14;40.96
7168;BME280;3625;51.762;14.320;2023-05-19T11:27:24;101678.38;;;19.56;42.02
7168;BME280;3625;51.762;14.320;2023-05-19T11:29:54;101687.56;;;20.97;40.39
7168;BME280;3625;51.762;14.320;2023-05-19T11:32:27;101697.13;;;21.98;37.42
7168;BME280;3625;51.762;14.320;2023-05-19T11:34:58;101683.06;;;20.78;38.68
7168;BME280;3625;51.762;14.320;2023-05-19T11:37:31;101678.00;;;21.29;38.80
7168;BME280;3625;51.762;14.320;2023-05-19T11:40:01;101696.66;;;22.25;37.22
7168;BME280;3625;51.762;14.320;2023-05-19T11:42:34;101687.88;;;22.21;37.66
7168;BME280;3625;51.762;14.320;2023-05-19T11:45:04;101697.88;;;22.88;36.74
7168;BME280;3625;51.762;14.320;2023-05-19T11:47:33;101695.72;;;22.08;36.85
7168;BME280;3625;51.762;14.320;2023-05-19T11:50:25;101674.44;;;21.29;37.50
7168;BME280;3625;51.762;14.320;2023-05-19T11:52:54;101673.81;;;21.97;37.97
7168;BME280;3625;51.762;14.320;2023-05-19T11:55:23;101693.47;;;21.99;37.86
7168;BME280;3625;51.762;14.320;2023-05-19T11:57:59;101688.97;;;22.17;37.46
7168;BME280;3625;51.762;14.320;2023-05-19T12:00:36;101690.59;;;21.29;38.20
7168;BME280;3625;51.762;14.320;2023-05-19T12:03:06;101683.69;;;21.61;38.35
7168;BME280;3625;51.762;14.320;2023-05-19T12:05:41;101657.84;;;21.93;37.06
7168;BME280;3625;51.762;14.320;2023-05-19T12:08:11;101674.63;;;21.44;38.01
7168;BME280;3625;51.762;14.320;2023-05-19T12:10:40;101671.09;;;21.24;38.49
7168;BME280;3625;51.762;14.320;2023-05-19T12:13:09;101659.56;;;21.76;38.28
7168;BME280;3625;51.762;14.320;2023-05-19T12:15:37;101678.47;;;21.94;38.44
7168;BME280;3625;51.762;14.320;2023-05-19T12:18:06;101664.84;;;21.61;38.37
7168;BME280;3625;51.762;14.320;2023-05-19T12:20:36;101634.47;;;20.62;39.61
7168;BME280;3625;51.762;14.320;2023-05-19T12:23:05;101643.88;;;19.89;42.01
7168;BME280;3625;51.762;14.320;2023-05-19T12:25:34;101670.03;;;20.89;40.68
7168;BME280;3625;51.762;14.320;2023-05-19T12:28:03;101659.66;;;20.80;40.36
7168;BME280;3625;51.762;14.320;2023-05-19T12:30:33;101667.72;;;20.41;41.31
7168;BME280;3625;51.762;14.320;2023-05-19T12:33:02;101673.38;;;21.13;40.31
7168;BME280;3625;51.762;14.320;2023-05-19T12:35:32;101673.69;;;21.63;39.63
7168;BME280;3625;51.762;14.320;2023-05-19T12:38:04;101690.13;;;22.30;38.49
7168;BME280;3625;51.762;14.320;2023-05-19T12:40:34;101657.91;;;19.98;40.96
7168;BME280;3625;51.762;14.320;2023-05-19T12:43:04;101673.94;;;19.32;42.89
7168;BME280;3625;51.762;14.320;2023-05-19T12:45:34;101669.56;;;19.75;42.47
7168;BME280;3625;51.762;14.320;2023-05-19T12:48:10;101666.75;;;20.82;40.01
7168;BME280;3625;51.762;14.320;2023-05-19T12:50:43;101658.22;;;21.85;39.12
7168;BME280;3625;51.762;14.320;2023-05-19T12:53:14;101641.97;;;22.23;38.00
7168;BME280;3625;51.762;14.320;2023-05-19T12:55:44;101637.34;;;22.07;38.03
7168;BME280;3625;51.762;14.320;2023-05-19T12:58:15;101663.03;;;22.14;37.53
7168;BME280;3625;51.762;14.320;2023-05-19T13:00:45;101615.41;;;21.05;39.62
7168;BME280;3625;51.762;14.320;2023-05-19T13:03:18;101642.31;;;20.26;41.25
7168;BME280;3625;51.762;14.320;2023-05-19T13:05:49;101641.28;;;20.08;42.48
7168;BME280;3625;51.762;14.320;2023-05-19T13:08:20;101631.97;;;20.17;41.66
7168;BME280;3625;51.762;14.320;2023-05-19T13:10:50;101617.44;;;20.82;40.56
7168;BME280;3625;51.762;14.320;2023-05-19T13:13:18;101657.41;;;21.47;39.37
7168;BME280;3625;51.762;14.320;2023-05-19T13:15:49;101652.72;;;21.13;39.88
7168;BME280;3625;51.762;14.320;2023-05-19T13:18:18;101623.56;;;19.62;41.36
7168;BME280;3625;51.762;14.320;2023-05-19T13:20:47;101620.81;;;19.18;42.90
7168;BME280;3625;51.762;14.320;2023-05-19T13:23:16;101644.25;;;20.02;42.13
7168;BME280;3625;51.762;14.320;2023-05-19T13:25:46;101588.22;;;19.51;42.09